createdAt,value
2023-05-21T00:00:27.457Z,9.48
2023-05-21T00:02:54.026Z,9.00
2023-05-21T00:05:21.430Z,10.38
2023-05-21T00:07:47.951Z,9.50
2023-05-21T00:10:16.808Z,9.05
2023-05-21T00:12:43.315Z,9.65
2023-05-21T00:15:10.777Z,9.55
2023-05-21T00:17:37.392Z,10.32
2023-05-21T00:20:09.938Z,9.98
2023-05-21T00:22:36.451Z,10.35
2023-05-21T00:25:06.484Z,12.32
2023-05-21T00:27:37.986Z,12.07
2023-05-21T00:30:07.388Z,10.30
2023-05-21T00:32:33.831Z,10.30
2023-05-21T00:35:00.422Z,10.38
2023-05-21T00:37:29.766Z,10.25
2023-05-21T00:39:58.213Z,10.20
2023-05-21T00:42:27.400Z,9.95
2023-05-21T00:44:57.678Z,10.43
2023-05-21T00:47:24.757Z,9.48
2023-05-21T00:49:54.271Z,10.18
2023-05-21T00:52:21.969Z,9.90
2023-05-21T00:54:51.797Z,10.48
2023-05-21T00:57:25.430Z,9.98
2023-05-21T00:59:53.346Z,10.68
2023-05-21T01:02:19.969Z,9.85
2023-05-21T01:04:48.838Z,10.00
2023-05-21T01:07:15.300Z,10.40
2023-05-21T01:09:43.558Z,10.25
2023-05-21T01:12:17.798Z,10.10
2023-05-21T01:14:44.963Z,9.70
2023-05-21T01:17:13.085Z,9.50
2023-05-21T01:19:39.807Z,10.48
2023-05-21T01:22:07.846Z,10.90
2023-05-21T01:24:34.761Z,10.23
2023-05-21T01:27:03.141Z,9.50
2023-05-21T01:29:29.701Z,8.88
2023-05-21T01:32:01.462Z,10.02
2023-05-21T01:34:38.074Z,10.65
2023-05-21T01:37:14.376Z,10.18
2023-05-21T01:39:44.636Z,10.75
2023-05-21T01:42:14.355Z,10.75
2023-05-21T01:44:41.187Z,10.98
2023-05-21T01:47:08.229Z,10.52
2023-05-21T01:49:35.042Z,9.00
2023-05-21T01:52:04.916Z,10.65
2023-05-21T01:54:33.794Z,9.50
2023-05-21T01:57:03.782Z,9.95
2023-05-21T01:59:30.324Z,10.82
2023-05-21T02:01:56.944Z,10.63
2023-05-21T02:04:23.397Z,9.70
2023-05-21T02:06:49.814Z,11.05
2023-05-21T02:09:16.413Z,10.15
2023-05-21T02:11:44.984Z,11.18
2023-05-21T02:14:14.094Z,10.23
2023-05-21T02:16:42.479Z,9.25
2023-05-21T02:19:10.490Z,9.80
2023-05-21T02:21:37.160Z,10.68
2023-05-21T02:24:03.800Z,11.40
2023-05-21T02:26:30.279Z,9.82
2023-05-21T02:28:57.343Z,10.73
2023-05-21T02:31:23.862Z,9.38
2023-05-21T02:33:50.536Z,10.50
2023-05-21T02:36:19.562Z,11.25
2023-05-21T02:38:46.624Z,10.10
2023-05-21T02:41:16.031Z,9.90
2023-05-21T02:43:42.466Z,9.43
2023-05-21T02:46:09.023Z,10.68
2023-05-21T02:48:37.790Z,10.48
2023-05-21T02:51:04.376Z,10.23
2023-05-21T02:53:31.164Z,10.43
2023-05-21T02:55:57.632Z,10.65
2023-05-21T02:58:25.210Z,10.25
2023-05-21T03:00:52.796Z,9.93
2023-05-21T03:03:19.405Z,9.07
2023-05-21T03:05:46.194Z,11.60
2023-05-21T03:08:12.685Z,9.95
2023-05-21T03:10:39.300Z,9.38
2023-05-21T03:13:09.753Z,10.57
2023-05-21T03:15:38.980Z,10.07
2023-05-21T03:18:05.865Z,10.23
2023-05-21T03:20:32.701Z,9.70
2023-05-21T03:23:00.615Z,12.57
2023-05-21T03:25:27.053Z,9.85
2023-05-21T03:27:53.455Z,9.48
2023-05-21T03:30:20.079Z,8.60
2023-05-21T03:32:47.657Z,10.23
2023-05-21T03:35:14.191Z,9.95
2023-05-21T03:37:40.663Z,9.45
2023-05-21T03:40:07.864Z,10.15
2023-05-21T03:42:34.359Z,9.98
2023-05-21T03:45:01.011Z,10.23
2023-05-21T03:47:27.442Z,11.38
2023-05-21T03:49:53.896Z,10.85
2023-05-21T03:52:20.449Z,10.10
2023-05-21T03:54:46.884Z,9.95
2023-05-21T03:57:13.319Z,9.98
2023-05-21T03:59:39.752Z,9.77
2023-05-21T04:02:06.286Z,10.50
2023-05-21T04:04:33.835Z,9.73
2023-05-21T04:07:01.047Z,9.15
2023-05-21T04:09:27.767Z,10.73
2023-05-21T04:11:56.573Z,10.23
2023-05-21T04:14:23.514Z,9.45
2023-05-21T04:16:50.132Z,10.38
2023-05-21T04:19:16.645Z,10.85
2023-05-21T04:21:44.979Z,10.90
2023-05-21T04:24:11.818Z,9.95
2023-05-21T04:26:42.209Z,10.25
2023-05-21T04:29:09.919Z,11.63
2023-05-21T04:31:36.434Z,10.52
2023-05-21T04:34:03.066Z,9.93
2023-05-21T04:36:30.161Z,10.52
2023-05-21T04:38:56.656Z,10.52
2023-05-21T04:41:23.123Z,10.07
2023-05-21T04:43:49.647Z,10.15
2023-05-21T04:46:16.268Z,9.77
2023-05-21T04:48:45.167Z,11.13
2023-05-21T04:51:15.146Z,10.23
2023-05-21T04:53:42.559Z,10.32
2023-05-21T04:56:09.735Z,9.32
2023-05-21T04:58:36.565Z,10.60
2023-05-21T05:01:04.153Z,9.88
2023-05-21T05:03:30.767Z,9.75
2023-05-21T05:05:57.263Z,10.55
2023-05-21T05:08:23.675Z,10.00
2023-05-21T05:10:50.241Z,9.95
2023-05-21T05:13:16.832Z,8.80
2023-05-21T05:15:49.646Z,10.48
2023-05-21T05:18:16.843Z,9.52
2023-05-21T05:20:43.402Z,10.40
2023-05-21T05:23:09.899Z,8.98
2023-05-21T05:25:36.695Z,9.98
2023-05-21T05:28:05.901Z,8.10
2023-05-21T05:30:32.622Z,10.15
2023-05-21T05:32:59.175Z,11.25
2023-05-21T05:35:25.916Z,10.32
2023-05-21T05:37:52.444Z,9.25
2023-05-21T05:40:18.841Z,10.48
2023-05-21T05:42:49.457Z,9.70
2023-05-21T05:45:16.029Z,9.48
2023-05-21T05:47:42.576Z,10.18
2023-05-21T05:50:09.158Z,9.98
2023-05-21T05:52:35.986Z,10.00
2023-05-21T05:55:02.650Z,7.70
2023-05-21T05:57:29.855Z,9.88
2023-05-21T05:59:56.332Z,8.98
2023-05-21T06:02:22.791Z,8.63
2023-05-21T06:04:49.284Z,8.75
2023-05-21T06:07:15.750Z,10.77
2023-05-21T06:09:42.172Z,9.35
2023-05-21T06:12:14.765Z,9.70
2023-05-21T06:14:44.884Z,8.73
2023-05-21T06:17:12.325Z,8.77
2023-05-21T06:19:39.497Z,9.75
2023-05-21T06:22:08.550Z,9.70
2023-05-21T06:24:35.033Z,8.93
2023-05-21T06:27:02.158Z,8.93
2023-05-21T06:29:28.622Z,10.10
2023-05-21T06:31:55.188Z,8.18
2023-05-21T06:34:21.581Z,9.40
2023-05-21T06:36:48.581Z,9.65
2023-05-21T06:39:15.361Z,9.57
2023-05-21T06:41:41.794Z,8.20
2023-05-21T06:44:08.310Z,9.05
2023-05-21T06:46:35.966Z,9.40
2023-05-21T06:49:06.990Z,8.10
2023-05-21T06:51:33.802Z,9.67
2023-05-21T06:54:00.499Z,9.48
2023-05-21T06:56:26.997Z,8.82
2023-05-21T06:58:54.434Z,9.30
2023-05-21T07:01:22.488Z,8.02
2023-05-21T07:03:49.490Z,9.18
2023-05-21T07:06:18.295Z,9.18
2023-05-21T07:08:44.826Z,8.32
2023-05-21T07:11:11.235Z,8.55
2023-05-21T07:13:37.764Z,9.23
2023-05-21T07:16:04.648Z,8.30
2023-05-21T07:18:31.249Z,7.40
2023-05-21T07:20:58.277Z,7.93
2023-05-21T07:23:25.018Z,8.30
2023-05-21T07:25:51.761Z,8.02
2023-05-21T07:28:18.206Z,8.20
2023-05-21T07:30:45.217Z,7.35
2023-05-21T07:33:12.766Z,7.20
2023-05-21T07:35:39.359Z,8.07
2023-05-21T07:38:06.524Z,7.05
2023-05-21T07:40:33.018Z,8.68
2023-05-21T07:43:02.015Z,7.53
2023-05-21T07:45:28.520Z,8.20
2023-05-21T07:47:55.104Z,8.00
2023-05-21T07:50:22.311Z,7.63
2023-05-21T07:52:49.919Z,7.13
2023-05-21T07:55:16.354Z,7.28
2023-05-21T07:57:42.804Z,8.18
2023-05-21T08:00:11.992Z,7.88
2023-05-21T08:02:38.497Z,7.53
2023-05-21T08:05:08.729Z,8.30
2023-05-21T08:07:44.974Z,6.60
2023-05-21T08:10:11.603Z,6.25
2023-05-21T08:12:38.009Z,6.60
2023-05-21T08:15:04.813Z,8.05
2023-05-21T08:17:31.277Z,7.25
2023-05-21T08:19:57.730Z,7.47
2023-05-21T08:22:24.250Z,7.00
2023-05-21T08:24:50.956Z,7.20
2023-05-21T08:27:22.204Z,6.68
2023-05-21T08:29:49.041Z,6.40
2023-05-21T08:32:15.734Z,7.45
2023-05-21T08:34:42.252Z,6.53
2023-05-21T08:37:11.099Z,6.97
2023-05-21T08:39:37.576Z,6.85
2023-05-21T08:42:35.661Z,6.03
2023-05-21T08:45:06.662Z,6.95
2023-05-21T08:47:37.697Z,6.82
2023-05-21T08:50:05.542Z,7.30
2023-05-21T08:52:33.276Z,7.15
2023-05-21T08:55:04.521Z,6.72
2023-05-21T08:57:31.704Z,7.13
2023-05-21T08:59:59.766Z,6.60
2023-05-21T09:02:34.241Z,6.07
2023-05-21T09:05:03.980Z,7.00
2023-05-21T09:07:34.278Z,6.13
2023-05-21T09:10:12.181Z,6.13
2023-05-21T09:12:38.874Z,6.82
2023-05-21T09:15:07.039Z,6.72
2023-05-21T09:17:33.738Z,6.95
2023-05-21T09:20:09.980Z,6.30
2023-05-21T09:22:50.484Z,6.72
2023-05-21T09:25:22.957Z,6.72
2023-05-21T09:27:54.015Z,6.40
2023-05-21T09:30:23.712Z,5.95
2023-05-21T09:32:59.351Z,6.13
2023-05-21T09:35:25.931Z,5.60
2023-05-21T09:37:57.472Z,6.25
2023-05-21T09:40:27.021Z,6.53
2023-05-21T09:42:54.892Z,5.38
2023-05-21T09:45:23.833Z,6.57
2023-05-21T09:47:52.253Z,6.18
2023-05-21T09:50:24.648Z,5.90
2023-05-21T09:52:53.014Z,5.97
2023-05-21T09:55:23.170Z,6.00
2023-05-21T09:57:51.429Z,6.65
2023-05-21T10:00:27.551Z,6.45
2023-05-21T10:02:55.784Z,6.43
2023-05-21T10:05:27.549Z,6.90
2023-05-21T10:08:00.128Z,6.57
2023-05-21T10:10:28.673Z,6.93
2023-05-21T10:12:59.646Z,6.25
2023-05-21T10:15:28.166Z,6.32
2023-05-21T10:17:56.366Z,6.10
2023-05-21T10:20:22.940Z,6.10
2023-05-21T10:22:50.537Z,5.90
2023-05-21T10:25:17.548Z,6.30
2023-05-21T10:27:47.351Z,7.18
2023-05-21T10:30:14.525Z,5.35
2023-05-21T10:32:46.594Z,6.43
2023-05-21T10:35:16.214Z,6.80
2023-05-21T10:37:46.558Z,6.43
2023-05-21T10:40:13.646Z,6.45
2023-05-21T10:43:14.590Z,6.45
2023-05-21T10:45:47.974Z,6.03
2023-05-21T10:48:33.918Z,6.32
2023-05-21T10:51:07.028Z,6.18
2023-05-21T10:53:54.951Z,6.22
2023-05-21T10:56:30.832Z,6.13
2023-05-21T10:59:22.133Z,6.20
2023-05-21T11:04:22.142Z,5.47
2023-05-21T11:06:49.368Z,6.03
2023-05-21T11:09:16.276Z,6.15
2023-05-21T11:11:51.580Z,6.47
2023-05-21T11:14:28.799Z,5.78
2023-05-21T11:16:55.609Z,6.63
2023-05-21T11:19:22.535Z,6.43
2023-05-21T11:21:51.851Z,6.50
2023-05-21T11:24:28.249Z,6.20
2023-05-21T11:26:55.855Z,5.95
2023-05-21T11:29:33.348Z,5.93
2023-05-21T11:32:04.121Z,6.00
2023-05-21T11:34:59.980Z,6.55
2023-05-21T11:37:30.274Z,5.80
2023-05-21T11:39:58.585Z,6.88
2023-05-21T11:42:38.827Z,6.32
2023-05-21T11:45:05.962Z,6.18
2023-05-21T11:47:32.954Z,5.80
2023-05-21T11:50:01.685Z,6.00
2023-05-21T11:52:32.856Z,6.00
2023-05-21T11:57:31.313Z,5.53
2023-05-21T12:02:32.286Z,5.43
2023-05-21T12:05:06.864Z,5.07
2023-05-21T12:07:33.287Z,5.93
2023-05-21T12:10:00.391Z,5.75
2023-05-21T12:12:35.291Z,5.35
2023-05-21T12:15:10.203Z,6.18
2023-05-21T12:17:36.846Z,4.88
2023-05-21T12:20:08.071Z,5.32
2023-05-21T12:25:02.024Z,5.43
2023-05-21T12:27:33.517Z,4.90
2023-05-21T12:30:01.767Z,5.45
2023-05-21T12:32:29.256Z,5.07
2023-05-21T12:34:56.290Z,5.22
2023-05-21T12:37:32.636Z,5.30
2023-05-21T12:40:05.277Z,5.65
2023-05-21T12:42:37.514Z,5.75
2023-05-21T12:45:11.265Z,5.05
2023-05-21T12:47:38.336Z,5.43
2023-05-21T12:50:09.291Z,5.20
2023-05-21T12:52:36.017Z,4.97
2023-05-21T12:55:02.773Z,4.97
2023-05-21T12:57:38.494Z,4.55
2023-05-21T13:00:07.268Z,4.40
2023-05-21T13:02:44.807Z,4.35
2023-05-21T13:05:19.965Z,3.45
2023-05-21T13:07:48.818Z,3.67
2023-05-21T13:10:16.795Z,3.33
2023-05-21T13:12:44.646Z,3.80
2023-05-21T13:15:11.692Z,3.78
2023-05-21T13:17:38.179Z,3.97
2023-05-21T13:20:13.791Z,4.15
2023-05-21T13:22:47.455Z,4.03
2023-05-21T13:25:20.346Z,4.03
2023-05-21T13:27:51.672Z,4.05
2023-05-21T13:30:19.386Z,4.18
2023-05-21T13:32:46.514Z,4.07
2023-05-21T13:35:15.112Z,3.88
2023-05-21T13:37:44.824Z,3.47
2023-05-21T13:40:15.179Z,3.55
2023-05-21T13:42:43.630Z,3.80
2023-05-21T13:45:11.741Z,3.70
2023-05-21T13:47:41.191Z,4.10
2023-05-21T13:50:08.965Z,4.00
2023-05-21T13:52:36.892Z,4.55
2023-05-21T13:55:07.150Z,4.35
2023-05-21T13:57:36.362Z,4.33
2023-05-21T14:00:03.584Z,4.18
2023-05-21T14:02:30.332Z,3.72
2023-05-21T14:04:59.235Z,4.00
2023-05-21T14:07:25.711Z,3.97
2023-05-21T14:09:54.562Z,3.80
2023-05-21T14:12:21.709Z,4.20
2023-05-21T14:14:49.861Z,4.18
2023-05-21T14:17:18.567Z,4.25
2023-05-21T14:19:47.996Z,4.00
2023-05-21T14:22:14.814Z,4.40
2023-05-21T14:24:41.534Z,4.05
2023-05-21T14:27:10.153Z,3.35
2023-05-21T14:29:39.800Z,3.85
2023-05-21T14:32:09.962Z,4.25
2023-05-21T14:34:38.363Z,3.92
2023-05-21T14:37:04.917Z,3.90
2023-05-21T14:39:31.381Z,3.35
2023-05-21T14:41:57.872Z,4.15
2023-05-21T14:44:24.286Z,4.15
2023-05-21T14:46:53.385Z,3.70
2023-05-21T14:49:20.020Z,3.65
2023-05-21T14:51:47.564Z,3.63
2023-05-21T14:54:19.643Z,4.15
2023-05-21T14:56:46.157Z,3.67
2023-05-21T14:59:18.093Z,3.95
2023-05-21T15:01:44.809Z,3.75
2023-05-21T15:04:13.701Z,4.57
2023-05-21T15:06:44.166Z,4.05
2023-05-21T15:09:13.066Z,3.97
2023-05-21T15:11:40.085Z,4.10
2023-05-21T15:14:09.626Z,3.95
2023-05-21T15:16:37.131Z,3.78
2023-05-21T15:19:04.320Z,3.85
2023-05-21T15:21:38.101Z,4.00
2023-05-21T15:24:04.802Z,4.18
2023-05-21T15:26:31.534Z,4.45
2023-05-21T15:28:57.937Z,4.80
2023-05-21T15:31:24.727Z,4.28
2023-05-21T15:33:51.202Z,4.72
2023-05-21T15:36:17.661Z,4.47
2023-05-21T15:38:51.573Z,3.58
2023-05-21T15:41:21.989Z,3.97
2023-05-21T15:43:48.529Z,4.13
2023-05-21T15:46:14.999Z,4.15
2023-05-21T15:48:46.037Z,4.35
2023-05-21T15:51:12.450Z,4.15
2023-05-21T15:53:39.137Z,3.67
2023-05-21T15:56:05.746Z,4.13
2023-05-21T15:58:32.443Z,3.95
2023-05-21T16:00:59.035Z,4.38
2023-05-21T16:03:25.621Z,5.57
2023-05-21T16:05:52.271Z,4.22
2023-05-21T16:08:18.789Z,4.13
2023-05-21T16:10:45.959Z,4.47
2023-05-21T16:13:14.858Z,4.90
2023-05-21T16:15:41.653Z,3.95
2023-05-21T16:18:11.743Z,4.55
2023-05-21T16:20:38.450Z,4.50
2023-05-21T16:23:06.476Z,4.38
2023-05-21T16:25:33.541Z,4.43
2023-05-21T16:28:00.161Z,4.75
2023-05-21T16:30:26.762Z,4.82
2023-05-21T16:32:55.644Z,3.70
2023-05-21T16:35:22.070Z,4.93
2023-05-21T16:37:48.548Z,4.65
2023-05-21T16:40:15.011Z,4.70
2023-05-21T16:42:46.611Z,5.13
2023-05-21T16:45:19.471Z,4.82
2023-05-21T16:47:50.195Z,4.47
2023-05-21T16:50:18.941Z,4.25
2023-05-21T16:52:45.667Z,4.43
2023-05-21T16:55:12.706Z,4.03
2023-05-21T16:57:39.487Z,4.13
2023-05-21T17:00:08.138Z,4.18
2023-05-21T17:02:38.298Z,4.07
2023-05-21T17:05:07.802Z,4.18
2023-05-21T17:07:34.391Z,4.05
2023-05-21T17:10:04.812Z,4.55
2023-05-21T17:12:31.245Z,4.30
2023-05-21T17:14:57.831Z,3.83
2023-05-21T17:17:24.329Z,4.35
2023-05-21T17:19:50.787Z,4.07
2023-05-21T17:22:17.497Z,4.22
2023-05-21T17:24:43.919Z,4.53
2023-05-21T17:27:10.687Z,3.85
2023-05-21T17:29:37.209Z,4.20
2023-05-21T17:32:03.992Z,4.07
2023-05-21T17:34:30.502Z,4.70
2023-05-21T17:37:00.695Z,4.22
2023-05-21T17:39:29.897Z,5.25
2023-05-21T17:41:58.758Z,5.03
2023-05-21T17:44:25.436Z,4.40
2023-05-21T17:46:52.104Z,4.75
2023-05-21T17:49:19.082Z,5.82
2023-05-21T17:51:48.139Z,4.82
2023-05-21T17:54:15.079Z,4.50
2023-05-21T17:56:41.570Z,4.80
2023-05-21T17:59:09.800Z,4.63
2023-05-21T18:01:37.619Z,4.30
2023-05-21T18:04:05.627Z,4.43
2023-05-21T18:06:32.837Z,4.82
2023-05-21T18:08:59.344Z,4.97
2023-05-21T18:11:26.408Z,4.78
2023-05-21T18:13:54.490Z,4.30
2023-05-21T18:16:21.124Z,4.65
2023-05-21T18:18:47.604Z,4.65
2023-05-21T18:21:14.162Z,4.32
2023-05-21T18:23:40.571Z,4.93
2023-05-21T18:26:07.190Z,4.50
2023-05-21T18:28:33.862Z,4.50
2023-05-21T18:31:06.388Z,4.50
2023-05-21T18:33:35.637Z,4.50
2023-05-21T18:36:02.224Z,4.75
2023-05-21T18:38:28.643Z,3.67
2023-05-21T18:40:57.389Z,4.63
2023-05-21T18:43:25.991Z,4.93
2023-05-21T18:45:54.792Z,5.40
2023-05-21T18:48:21.235Z,4.85
2023-05-21T18:50:47.679Z,4.72
2023-05-21T18:53:16.342Z,5.57
2023-05-21T18:55:42.874Z,4.97
2023-05-21T18:58:11.613Z,5.00
2023-05-21T19:00:39.594Z,5.32
2023-05-21T19:03:06.610Z,5.30
2023-05-21T19:05:33.382Z,4.72
2023-05-21T19:08:00.330Z,5.28
2023-05-21T19:10:30.799Z,5.00
2023-05-21T19:12:57.406Z,4.57
2023-05-21T19:15:23.931Z,5.63
2023-05-21T19:17:50.579Z,4.82
2023-05-21T19:20:28.920Z,4.68
2023-05-21T19:22:58.168Z,4.57
2023-05-21T19:25:24.637Z,5.10
2023-05-21T19:27:52.752Z,5.13
2023-05-21T19:30:19.554Z,4.00
2023-05-21T19:32:46.121Z,9.40
2023-05-21T19:35:12.747Z,10.18
2023-05-21T19:37:39.230Z,9.88
2023-05-21T19:40:07.350Z,7.78
2023-05-21T19:42:33.758Z,8.40
2023-05-21T19:45:02.845Z,7.80
2023-05-21T19:47:30.877Z,8.18
2023-05-21T19:49:57.355Z,6.75
2023-05-21T19:52:24.257Z,7.07
2023-05-21T19:54:53.098Z,6.60
2023-05-21T19:57:21.897Z,5.00
2023-05-21T19:59:48.314Z,6.03
2023-05-21T20:02:24.079Z,6.28
2023-05-21T20:04:53.663Z,5.00
2023-05-21T20:07:20.198Z,5.10
2023-05-21T20:09:46.620Z,4.90
2023-05-21T20:12:16.350Z,5.80
2023-05-21T20:14:46.964Z,5.28
2023-05-21T20:17:18.922Z,6.03
2023-05-21T20:19:48.978Z,6.85
2023-05-21T20:22:15.959Z,5.45
2023-05-21T20:24:44.125Z,5.60
2023-05-21T20:27:14.710Z,5.47
2023-05-21T20:29:42.866Z,5.88
2023-05-21T20:32:09.285Z,5.70
2023-05-21T20:37:06.104Z,6.18
2023-05-21T20:39:32.546Z,6.32
2023-05-21T20:42:00.698Z,5.55
2023-05-21T20:44:27.575Z,5.53
2023-05-21T20:46:54.114Z,5.57
2023-05-21T20:49:24.576Z,6.05
2023-05-21T20:51:51.399Z,5.20
2023-05-21T20:54:22.273Z,6.50
2023-05-21T20:56:50.794Z,4.83
2023-05-21T20:59:17.363Z,6.85
2023-05-21T21:01:43.882Z,5.20
2023-05-21T21:04:12.786Z,5.53
2023-05-21T21:06:40.181Z,6.25
2023-05-21T21:09:06.759Z,4.50
2023-05-21T21:11:33.459Z,4.32
2023-05-21T21:13:59.857Z,6.40
2023-05-21T21:16:26.461Z,6.35
2023-05-21T21:18:52.938Z,5.85
2023-05-21T21:21:19.464Z,7.20
2023-05-21T21:23:46.104Z,7.13
2023-05-21T21:26:12.521Z,8.82
2023-05-21T21:28:39.014Z,7.53
2023-05-21T21:31:05.680Z,7.65
2023-05-21T21:33:32.260Z,5.53
2023-05-21T21:36:00.305Z,8.88
2023-05-21T21:38:26.764Z,8.45
2023-05-21T21:40:58.151Z,7.82
2023-05-21T21:43:24.655Z,8.68
2023-05-21T21:45:51.477Z,6.07
2023-05-21T21:48:20.245Z,7.88
2023-05-21T21:50:46.642Z,6.38
2023-05-21T21:53:14.045Z,6.25
2023-05-21T21:55:40.751Z,7.40
2023-05-21T21:58:07.220Z,5.90
2023-05-21T22:00:33.738Z,8.48
2023-05-21T22:03:00.304Z,5.70
2023-05-21T22:05:30.593Z,9.15
2023-05-21T22:07:57.055Z,8.25
2023-05-21T22:10:26.225Z,7.07
2023-05-21T22:12:55.590Z,5.65
2023-05-21T22:15:28.507Z,8.63
2023-05-21T22:17:55.626Z,6.70
2023-05-21T22:20:22.183Z,8.13
2023-05-21T22:22:49.665Z,7.85
2023-05-21T22:25:16.314Z,6.65
2023-05-21T22:27:43.183Z,7.35
2023-05-21T22:30:10.371Z,8.32
2023-05-21T22:32:37.573Z,5.93
2023-05-21T22:35:04.476Z,6.50
2023-05-21T22:37:31.062Z,7.70
2023-05-21T22:39:57.591Z,6.28
2023-05-21T22:42:27.153Z,7.93
2023-05-21T22:44:53.617Z,7.13
2023-05-21T22:47:23.718Z,7.65
2023-05-21T22:49:53.191Z,6.65
2023-05-21T22:52:21.894Z,8.50
2023-05-21T22:54:49.045Z,7.55
2023-05-21T22:57:15.627Z,8.30
2023-05-21T22:59:44.401Z,6.30
2023-05-21T23:02:14.033Z,8.25
2023-05-21T23:04:44.437Z,7.82
2023-05-21T23:07:11.841Z,9.48
2023-05-21T23:09:38.266Z,6.05
2023-05-21T23:12:04.963Z,8.93
2023-05-21T23:14:31.439Z,8.75
2023-05-21T23:17:01.955Z,9.68
2023-05-21T23:19:29.524Z,8.95
2023-05-21T23:21:56.487Z,9.27
2023-05-21T23:24:23.359Z,8.77
2023-05-21T23:26:49.906Z,7.93
2023-05-21T23:29:16.626Z,8.02
2023-05-21T23:31:43.712Z,9.05
2023-05-21T23:34:10.693Z,8.82
2023-05-21T23:36:37.253Z,7.80
2023-05-21T23:39:03.741Z,9.43
2023-05-21T23:41:30.326Z,8.98
2023-05-21T23:43:56.790Z,7.05
2023-05-21T23:46:23.385Z,8.18
2023-05-21T23:48:49.924Z,7.65
2023-05-21T23:51:19.402Z,7.63
2023-05-21T23:53:48.358Z,6.80
2023-05-21T23:56:14.828Z,8.38
2023-05-21T23:58:41.331Z,8.48
